Navarro Mills, Texas
Current Conditions -  °F | °C
As of 7:40 AM on Friday 19 Dec 2014 (Local Time) from KCRS Reporting Station
Moderate Rain Moderate Rain  
Wind Chill: 43°   Ceiling: 6000
Heat Index: 47°   Visibility: 4mi
Dew Point: 45°   Wind: 8mph
Humidity: 93%   Direction: 30°NNE
Pressure: 30.2"   Gusts: NA
Location:  31.9458°N, 96.5713°W
Report Text: KCRS 191340Z AUTO 03007KT 4SM RA BR SCT005 BKN060 OVC075 08/07 A3020 RMK AO2 P0003 T00830072
Loading
Personal Weather Stations






























Interactive Weather Map New forecast layout! Learn more

10-Day Weather Forecast

Advertisements
Track Severe Weather on mobile